createdAt,value
2023-05-06T00:00:46.057Z,13.88
2023-05-06T00:01:46.036Z,13.88
2023-05-06T00:02:46.186Z,13.91
2023-05-06T00:03:46.279Z,13.93
2023-05-06T00:04:46.033Z,13.91
2023-05-06T00:05:45.994Z,13.91
2023-05-06T00:06:45.987Z,13.91
2023-05-06T00:07:46.176Z,13.91
2023-05-06T00:08:46.019Z,13.90
2023-05-06T00:09:45.950Z,13.93
2023-05-06T00:10:45.947Z,13.93
2023-05-06T00:11:45.924Z,13.93
2023-05-06T00:12:45.943Z,13.93
2023-05-06T00:13:45.902Z,13.94
2023-05-06T00:14:45.889Z,13.90
2023-05-06T00:15:45.886Z,13.90
2023-05-06T00:16:45.988Z,13.90
2023-05-06T00:17:45.894Z,13.90
2023-05-06T00:18:45.854Z,13.86
2023-05-06T00:19:45.852Z,13.86
2023-05-06T00:20:45.830Z,13.86
2023-05-06T00:21:45.821Z,13.80
2023-05-06T00:22:45.813Z,13.80
2023-05-06T00:23:45.890Z,13.79
2023-05-06T00:24:45.784Z,13.76
2023-05-06T00:25:45.793Z,13.79
2023-05-06T00:26:45.762Z,13.76
2023-05-06T00:27:45.749Z,13.76
2023-05-06T00:28:45.741Z,13.72
2023-05-06T00:29:45.725Z,13.75
2023-05-06T00:30:45.785Z,13.79
2023-05-06T00:31:45.744Z,13.73
2023-05-06T00:32:45.777Z,13.73
2023-05-06T00:33:45.685Z,13.76
2023-05-06T00:34:45.678Z,13.75
2023-05-06T00:35:45.665Z,13.72
2023-05-06T00:36:45.658Z,13.71
2023-05-06T00:37:45.648Z,13.72
2023-05-06T00:38:45.628Z,13.71
2023-05-06T00:39:45.660Z,13.66
2023-05-06T00:40:45.606Z,13.73
2023-05-06T00:41:45.599Z,13.71
2023-05-06T00:42:45.590Z,13.69
2023-05-06T00:43:45.599Z,13.71
2023-05-06T00:44:45.564Z,13.68
2023-05-06T00:45:45.614Z,13.65
2023-05-06T00:46:45.546Z,13.71
2023-05-06T00:47:45.564Z,13.71
2023-05-06T00:48:45.562Z,13.65
2023-05-06T00:49:45.559Z,13.63
2023-05-06T00:50:45.507Z,13.62
2023-05-06T00:51:45.525Z,13.65
2023-05-06T00:52:45.480Z,13.65
2023-05-06T00:53:45.462Z,13.66
2023-05-06T00:54:45.459Z,13.59
2023-05-06T00:55:45.468Z,13.55
2023-05-06T00:56:45.437Z,13.53
2023-05-06T00:57:45.423Z,13.55
2023-05-06T00:58:45.409Z,13.53
2023-05-06T00:59:45.408Z,13.50
2023-05-06T01:00:45.406Z,13.48
2023-05-06T01:01:45.378Z,13.50
2023-05-06T01:02:47.857Z,13.53
2023-05-06T01:03:45.555Z,13.57
2023-05-06T01:04:45.442Z,13.54
2023-05-06T01:05:45.348Z,13.54
2023-05-06T01:06:45.324Z,13.53
2023-05-06T01:07:45.315Z,13.50
2023-05-06T01:08:45.303Z,13.48
2023-05-06T01:09:45.389Z,13.44
2023-05-06T01:10:45.292Z,13.38
2023-05-06T01:11:45.368Z,13.36
2023-05-06T01:12:45.321Z,13.36
2023-05-06T01:13:45.250Z,13.36
2023-05-06T01:14:45.238Z,13.38
2023-05-06T01:15:45.243Z,13.39
2023-05-06T01:16:45.247Z,13.39
2023-05-06T01:17:45.258Z,13.35
2023-05-06T01:18:45.197Z,13.29
2023-05-06T01:19:45.183Z,13.24
2023-05-06T01:20:45.175Z,13.17
2023-05-06T01:21:45.163Z,13.13
2023-05-06T01:22:45.149Z,13.12
2023-05-06T01:23:45.140Z,13.12
2023-05-06T01:24:45.146Z,13.13
2023-05-06T01:25:45.121Z,13.12
2023-05-06T01:26:45.107Z,13.13
2023-05-06T01:27:45.198Z,13.13
2023-05-06T01:28:45.094Z,13.12
2023-05-06T01:29:45.079Z,13.12
2023-05-06T01:30:45.148Z,13.12
2023-05-06T01:31:45.054Z,13.14
2023-05-06T01:32:45.133Z,13.09
2023-05-06T01:33:45.034Z,13.06
2023-05-06T01:34:45.069Z,13.03
2023-05-06T01:35:45.011Z,13.01
2023-05-06T01:36:45.005Z,12.99
2023-05-06T01:37:44.996Z,12.99
2023-05-06T01:38:44.981Z,12.98
2023-05-06T01:39:44.999Z,12.96
2023-05-06T01:40:44.983Z,12.96
2023-05-06T01:41:44.994Z,12.95
2023-05-06T01:42:44.990Z,12.96
2023-05-06T01:43:45.362Z,12.95
2023-05-06T01:44:45.061Z,12.94
2023-05-06T01:45:45.058Z,12.91
2023-05-06T01:46:45.029Z,12.92
2023-05-06T01:47:44.923Z,12.91
2023-05-06T01:48:44.868Z,12.88
2023-05-06T01:49:44.867Z,12.81
2023-05-06T01:50:44.851Z,12.77
2023-05-06T01:51:44.837Z,12.76
2023-05-06T01:52:44.828Z,12.74
2023-05-06T01:53:44.817Z,12.70
2023-05-06T01:54:44.831Z,12.67
2023-05-06T01:55:44.800Z,12.66
2023-05-06T01:56:44.788Z,12.61
2023-05-06T01:57:44.774Z,12.55
2023-05-06T01:58:44.760Z,12.55
2023-05-06T01:59:44.914Z,12.54
2023-05-06T02:00:44.737Z,12.52
2023-05-06T02:01:44.789Z,12.52
2023-05-06T02:02:44.840Z,12.46
2023-05-06T02:03:44.768Z,12.43
2023-05-06T02:04:44.692Z,12.43
2023-05-06T02:05:44.684Z,12.43
2023-05-06T02:06:44.669Z,12.43
2023-05-06T02:07:44.660Z,12.41
2023-05-06T02:08:44.669Z,12.38
2023-05-06T02:09:44.654Z,12.38
2023-05-06T02:10:44.626Z,12.40
2023-05-06T02:11:44.613Z,12.43
2023-05-06T02:12:44.692Z,12.44
2023-05-06T02:13:44.596Z,12.43
2023-05-06T02:14:44.593Z,12.38
2023-05-06T02:15:44.599Z,12.29
2023-05-06T02:16:44.569Z,12.25
2023-05-06T02:17:44.561Z,12.22
2023-05-06T02:18:44.613Z,12.26
2023-05-06T02:19:44.527Z,12.23
2023-05-06T02:20:44.513Z,12.23
2023-05-06T02:21:44.511Z,12.12
2023-05-06T02:22:44.504Z,12.04
2023-05-06T02:23:44.479Z,12.04
2023-05-06T02:24:44.466Z,12.04
2023-05-06T02:25:44.458Z,12.08
2023-05-06T02:26:44.463Z,12.07
2023-05-06T02:27:44.440Z,12.11
2023-05-06T02:28:44.424Z,12.11
2023-05-06T02:29:44.417Z,12.11
2023-05-06T02:30:44.399Z,12.12
2023-05-06T02:31:44.552Z,12.16
2023-05-06T02:32:44.450Z,12.16
2023-05-06T02:33:44.374Z,12.13
2023-05-06T02:34:44.369Z,12.13
2023-05-06T02:35:44.394Z,12.12
2023-05-06T02:36:44.338Z,12.11
2023-05-06T02:37:44.322Z,12.03
2023-05-06T02:38:44.307Z,12.05
2023-05-06T02:39:44.298Z,11.98
2023-05-06T02:40:44.285Z,11.98
2023-05-06T02:41:44.286Z,11.97
2023-05-06T02:42:44.292Z,11.97
2023-05-06T02:43:44.257Z,12.01
2023-05-06T02:44:44.243Z,12.04
2023-05-06T02:45:44.292Z,12.07
2023-05-06T02:46:44.215Z,12.05
2023-05-06T02:47:44.323Z,12.01
2023-05-06T02:48:44.194Z,12.01
2023-05-06T02:49:44.186Z,12.00
2023-05-06T02:50:44.168Z,11.98
2023-05-06T02:51:44.162Z,11.98
2023-05-06T02:52:44.155Z,12.03
2023-05-06T02:53:44.136Z,12.03
2023-05-06T02:54:44.122Z,12.04
2023-05-06T02:55:44.115Z,12.03
2023-05-06T02:56:44.101Z,12.01
2023-05-06T02:57:44.091Z,12.01
2023-05-06T02:58:44.077Z,12.03
2023-05-06T02:59:44.066Z,12.00
2023-05-06T03:00:44.271Z,11.98
2023-05-06T03:01:44.044Z,11.96
2023-05-06T03:02:44.041Z,12.01
2023-05-06T03:03:44.149Z,12.04
2023-05-06T03:04:44.029Z,11.98
2023-05-06T03:05:44.005Z,11.97
2023-05-06T03:06:43.986Z,11.94
2023-05-06T03:07:43.977Z,11.96
2023-05-06T03:08:43.968Z,11.90
2023-05-06T03:09:43.960Z,11.96
2023-05-06T03:10:43.938Z,11.96
2023-05-06T03:11:43.931Z,11.97
2023-05-06T03:12:43.937Z,11.94
2023-05-06T03:13:43.913Z,11.96
2023-05-06T03:14:43.899Z,11.94
2023-05-06T03:15:43.887Z,11.96
2023-05-06T03:16:43.904Z,11.96
2023-05-06T03:17:43.913Z,11.93
2023-05-06T03:18:43.861Z,11.90
2023-05-06T03:19:43.936Z,11.94
2023-05-06T03:20:43.830Z,11.90
2023-05-06T03:21:43.836Z,11.88
2023-05-06T03:22:43.821Z,11.87
2023-05-06T03:23:43.794Z,11.84
2023-05-06T03:24:43.787Z,11.82
2023-05-06T03:25:43.776Z,11.79
2023-05-06T03:26:43.765Z,11.79
2023-05-06T03:27:43.757Z,11.84
2023-05-06T03:28:43.740Z,11.82
2023-05-06T03:29:43.738Z,11.82
2023-05-06T03:30:43.718Z,11.79
2023-05-06T03:31:43.720Z,11.78
2023-05-06T03:32:43.722Z,11.81
2023-05-06T03:33:43.694Z,11.81
2023-05-06T03:34:43.677Z,11.84
2023-05-06T03:35:43.798Z,11.84
2023-05-06T03:36:43.651Z,11.85
2023-05-06T03:37:43.645Z,11.87
2023-05-06T03:38:43.636Z,11.84
2023-05-06T03:39:43.626Z,11.79
2023-05-06T03:40:43.610Z,11.81
2023-05-06T03:41:43.599Z,11.81
2023-05-06T03:42:43.595Z,11.84
2023-05-06T03:43:43.598Z,11.85
2023-05-06T03:44:43.578Z,11.84
2023-05-06T03:45:43.564Z,11.90
2023-05-06T03:46:43.670Z,11.90
2023-05-06T03:47:43.536Z,11.93
2023-05-06T03:48:43.520Z,11.93
2023-05-06T03:49:43.513Z,11.96
2023-05-06T03:50:43.499Z,11.96
2023-05-06T03:51:43.710Z,11.94
2023-05-06T03:52:43.477Z,11.88
2023-05-06T03:53:43.471Z,11.81
2023-05-06T03:54:43.454Z,11.77
2023-05-06T03:55:43.446Z,11.78
2023-05-06T03:56:43.434Z,11.78
2023-05-06T03:57:43.424Z,11.79
2023-05-06T03:58:43.409Z,11.77
2023-05-06T03:59:43.415Z,11.77
2023-05-06T04:00:43.396Z,11.79
2023-05-06T04:01:43.509Z,11.79
2023-05-06T04:02:43.480Z,11.79
2023-05-06T04:03:43.486Z,11.84
2023-05-06T04:04:43.355Z,11.84
2023-05-06T04:05:43.390Z,11.85
2023-05-06T04:06:43.334Z,11.87
2023-05-06T04:07:43.420Z,11.88
2023-05-06T04:08:43.336Z,11.93
2023-05-06T04:09:43.318Z,11.98
2023-05-06T04:10:43.315Z,11.98
2023-05-06T04:11:43.345Z,11.98
2023-05-06T04:12:43.406Z,12.00
2023-05-06T04:13:43.290Z,11.97
2023-05-06T04:14:43.318Z,11.94
2023-05-06T04:15:43.226Z,11.96
2023-05-06T04:16:43.349Z,11.94
2023-05-06T04:17:43.249Z,11.94
2023-05-06T04:18:43.446Z,11.96
2023-05-06T04:19:43.185Z,11.98
2023-05-06T04:20:43.171Z,11.90
2023-05-06T04:21:43.166Z,11.94
2023-05-06T04:22:43.149Z,11.93
2023-05-06T04:23:43.236Z,11.90
2023-05-06T04:24:43.125Z,11.90
2023-05-06T04:25:43.122Z,11.94
2023-05-06T04:26:43.122Z,11.93
2023-05-06T04:27:43.102Z,11.88
2023-05-06T04:28:43.078Z,11.88
2023-05-06T04:29:43.077Z,11.88
2023-05-06T04:30:43.069Z,11.90
2023-05-06T04:31:43.102Z,11.90
2023-05-06T04:32:43.101Z,11.87
2023-05-06T04:33:43.055Z,11.90
2023-05-06T04:34:43.016Z,11.93
2023-05-06T04:35:43.015Z,12.00
2023-05-06T04:36:42.994Z,12.00
2023-05-06T04:37:42.984Z,12.04
2023-05-06T04:38:42.969Z,12.04
2023-05-06T04:39:43.089Z,12.04
2023-05-06T04:40:42.950Z,12.01
2023-05-06T04:41:42.934Z,11.94
2023-05-06T04:42:42.935Z,11.88
2023-05-06T04:43:42.918Z,11.94
2023-05-06T04:44:42.954Z,11.94
2023-05-06T04:45:42.918Z,11.94
2023-05-06T04:46:42.884Z,11.90
2023-05-06T04:47:42.919Z,11.82
2023-05-06T04:48:42.861Z,11.84
2023-05-06T04:49:42.851Z,11.81
2023-05-06T04:50:42.835Z,11.79
2023-05-06T04:51:42.833Z,11.87
2023-05-06T04:52:42.817Z,11.96
2023-05-06T04:53:42.812Z,12.00
2023-05-06T04:54:45.342Z,12.04
2023-05-06T04:55:42.800Z,12.07
2023-05-06T04:56:42.769Z,12.08
2023-05-06T04:57:42.757Z,12.15
2023-05-06T04:58:42.766Z,12.11
2023-05-06T04:59:42.779Z,12.04
2023-05-06T05:00:42.727Z,12.04
2023-05-06T05:01:42.750Z,12.08
2023-05-06T05:02:42.808Z,12.13
2023-05-06T05:03:42.773Z,12.18
2023-05-06T05:04:42.677Z,12.11
2023-05-06T05:05:42.668Z,12.12
2023-05-06T05:06:42.663Z,12.11
2023-05-06T05:07:42.653Z,12.13
2023-05-06T05:08:42.639Z,12.19
2023-05-06T05:09:42.625Z,12.23
2023-05-06T05:10:42.612Z,12.16
2023-05-06T05:11:42.709Z,12.12
2023-05-06T05:12:42.627Z,12.12
2023-05-06T05:13:42.584Z,12.13
2023-05-06T05:14:42.582Z,12.13
2023-05-06T05:15:42.563Z,12.13
2023-05-06T05:16:42.586Z,12.18
2023-05-06T05:17:42.541Z,12.15
2023-05-06T05:18:42.528Z,12.16
2023-05-06T05:19:42.511Z,12.18
2023-05-06T05:20:42.501Z,12.18
2023-05-06T05:21:42.499Z,12.16
2023-05-06T05:22:42.493Z,12.11
2023-05-06T05:23:42.472Z,12.03
2023-05-06T05:24:42.459Z,11.94
2023-05-06T05:25:42.451Z,11.96
2023-05-06T05:26:42.438Z,11.96
2023-05-06T05:27:42.458Z,11.96
2023-05-06T05:28:42.416Z,11.96
2023-05-06T05:29:42.399Z,12.01
2023-05-06T05:30:42.400Z,12.03
2023-05-06T05:31:42.426Z,12.05
2023-05-06T05:32:42.416Z,12.08
2023-05-06T05:33:42.408Z,12.13
2023-05-06T05:34:42.350Z,12.13
2023-05-06T05:35:42.380Z,12.16
2023-05-06T05:36:42.333Z,12.18
2023-05-06T05:37:42.327Z,12.22
2023-05-06T05:38:42.303Z,12.26
2023-05-06T05:39:42.293Z,12.34
2023-05-06T05:40:42.290Z,12.40
2023-05-06T05:41:42.296Z,12.31
2023-05-06T05:42:42.260Z,12.30
2023-05-06T05:43:42.344Z,12.26
2023-05-06T05:44:42.246Z,12.22
2023-05-06T05:45:42.228Z,12.31
2023-05-06T05:46:42.314Z,12.38
2023-05-06T05:47:42.208Z,12.41
2023-05-06T05:48:42.198Z,12.44
2023-05-06T05:49:42.186Z,12.38
2023-05-06T05:50:42.173Z,12.41
2023-05-06T05:51:42.179Z,12.40
2023-05-06T05:52:42.154Z,12.41
2023-05-06T05:53:42.152Z,12.44
2023-05-06T05:54:42.130Z,12.37
2023-05-06T05:55:42.116Z,12.43
2023-05-06T05:56:42.114Z,12.51
2023-05-06T05:57:42.111Z,12.52
2023-05-06T05:58:42.086Z,12.51
2023-05-06T05:59:42.100Z,12.48
2023-05-06T06:00:42.074Z,12.49
2023-05-06T06:01:42.053Z,12.52
2023-05-06T06:02:42.134Z,12.49
2023-05-06T06:03:42.208Z,12.52
2023-05-06T06:04:42.039Z,12.58
2023-05-06T06:05:42.003Z,12.66
2023-05-06T06:06:41.999Z,12.69
2023-05-06T06:07:41.987Z,12.77
2023-05-06T06:08:41.967Z,12.69
2023-05-06T06:09:42.088Z,12.73
2023-05-06T06:10:41.964Z,12.77
2023-05-06T06:11:41.938Z,12.79
2023-05-06T06:12:41.946Z,12.80
2023-05-06T06:13:41.925Z,12.79
2023-05-06T06:14:41.907Z,12.80
2023-05-06T06:15:41.989Z,12.84
2023-05-06T06:16:42.035Z,12.84
2023-05-06T06:17:41.902Z,12.98
2023-05-06T06:18:41.864Z,13.27
2023-05-06T06:19:41.851Z,13.53
2023-05-06T06:20:41.838Z,13.68
2023-05-06T06:21:41.834Z,13.87
2023-05-06T06:22:41.820Z,13.88
2023-05-06T06:23:41.817Z,13.93
2023-05-06T06:24:41.861Z,13.87
2023-05-06T06:25:41.793Z,13.84
2023-05-06T06:26:41.782Z,13.79
2023-05-06T06:27:41.762Z,13.65
2023-05-06T06:28:41.793Z,13.44
2023-05-06T06:29:41.737Z,13.32
2023-05-06T06:30:41.764Z,13.24
2023-05-06T06:31:41.960Z,13.24
2023-05-06T06:32:41.730Z,13.25
2023-05-06T06:33:41.701Z,13.32
2023-05-06T06:34:41.679Z,13.44
2023-05-06T06:35:41.667Z,13.55
2023-05-06T06:36:41.665Z,13.68
2023-05-06T06:37:41.651Z,13.65
2023-05-06T06:38:41.646Z,13.53
2023-05-06T06:39:41.629Z,13.65
2023-05-06T06:40:41.612Z,13.66
2023-05-06T06:41:41.601Z,13.65
2023-05-06T06:42:41.591Z,13.69
2023-05-06T06:43:41.577Z,13.73
2023-05-06T06:44:41.577Z,13.79
2023-05-06T06:45:41.603Z,13.79
2023-05-06T06:46:41.555Z,13.68
2023-05-06T06:47:41.590Z,13.46
2023-05-06T06:48:41.545Z,13.39
2023-05-06T06:49:41.513Z,13.36
2023-05-06T06:50:41.508Z,13.36
2023-05-06T06:51:41.485Z,13.43
2023-05-06T06:52:41.475Z,13.54
2023-05-06T06:53:41.533Z,13.59
2023-05-06T06:54:41.457Z,13.68
2023-05-06T06:55:41.441Z,13.66
2023-05-06T06:56:41.428Z,13.83
2023-05-06T06:57:41.420Z,13.84
2023-05-06T06:58:41.405Z,13.66
2023-05-06T06:59:41.400Z,13.51
2023-05-06T07:00:41.391Z,13.38
2023-05-06T07:01:41.473Z,13.28
2023-05-06T07:02:41.433Z,13.28
2023-05-06T07:03:41.498Z,13.39
2023-05-06T07:04:41.378Z,13.46
2023-05-06T07:05:41.322Z,13.53
2023-05-06T07:06:41.319Z,13.53
2023-05-06T07:07:41.305Z,13.54
2023-05-06T07:08:41.294Z,13.63
2023-05-06T07:09:41.279Z,13.69
2023-05-06T07:10:41.274Z,13.76
2023-05-06T07:11:41.302Z,13.83
2023-05-06T07:12:41.277Z,13.90
2023-05-06T07:13:41.249Z,13.91
2023-05-06T07:14:41.234Z,13.83
2023-05-06T07:15:41.219Z,13.90
2023-05-06T07:16:42.129Z,13.94
2023-05-06T07:17:41.299Z,14.06
2023-05-06T07:18:41.184Z,14.17
2023-05-06T07:19:41.274Z,14.24
2023-05-06T07:20:41.174Z,14.34
2023-05-06T07:21:41.161Z,14.39
2023-05-06T07:22:41.189Z,14.27
2023-05-06T07:23:41.119Z,14.09
2023-05-06T07:24:41.129Z,14.11
2023-05-06T07:25:41.098Z,14.04
2023-05-06T07:26:41.104Z,14.13
2023-05-06T07:27:41.087Z,14.23
2023-05-06T07:28:41.095Z,14.23
2023-05-06T07:29:41.052Z,14.26
2023-05-06T07:30:41.044Z,14.30
2023-05-06T07:31:41.033Z,14.41
2023-05-06T07:32:41.079Z,14.44
2023-05-06T07:33:41.015Z,14.53
2023-05-06T07:34:41.152Z,14.60
2023-05-06T07:35:41.085Z,14.60
2023-05-06T07:36:41.040Z,14.57
2023-05-06T07:37:40.966Z,14.61
2023-05-06T07:38:40.955Z,14.54
2023-05-06T07:39:40.957Z,14.48
2023-05-06T07:40:40.933Z,14.48
2023-05-06T07:41:40.928Z,14.31
2023-05-06T07:42:42.824Z,14.29
2023-05-06T07:43:40.906Z,14.36
2023-05-06T07:44:40.892Z,14.44
2023-05-06T07:45:40.883Z,14.49
2023-05-06T07:46:40.904Z,14.52
2023-05-06T07:47:40.954Z,14.59
2023-05-06T07:48:40.851Z,14.56
2023-05-06T07:49:40.875Z,14.46
2023-05-06T07:50:40.836Z,14.46
2023-05-06T07:51:40.839Z,14.56
2023-05-06T07:52:40.820Z,14.69
2023-05-06T07:53:40.797Z,14.69
2023-05-06T07:54:40.786Z,14.75
2023-05-06T07:55:40.797Z,14.78
2023-05-06T07:56:40.775Z,14.52
2023-05-06T07:57:40.748Z,14.53
2023-05-06T07:58:40.774Z,14.60
2023-05-06T07:59:40.730Z,14.45
2023-05-06T08:00:40.732Z,14.35
2023-05-06T08:01:40.727Z,14.42
2023-05-06T08:02:40.772Z,14.44
2023-05-06T08:03:40.793Z,14.57
2023-05-06T08:04:40.696Z,14.75
2023-05-06T08:05:40.664Z,14.95
2023-05-06T08:06:40.649Z,15.09
2023-05-06T08:07:43.534Z,15.20
2023-05-06T08:08:40.632Z,15.20
2023-05-06T08:09:40.622Z,15.30
2023-05-06T08:10:40.611Z,15.41
2023-05-06T08:11:40.607Z,15.53
2023-05-06T08:12:40.625Z,15.56
2023-05-06T08:13:40.575Z,15.55
2023-05-06T08:14:40.563Z,15.53
2023-05-06T08:15:40.552Z,15.52
2023-05-06T08:16:40.572Z,15.49
2023-05-06T08:17:40.594Z,15.52
2023-05-06T08:18:40.528Z,15.46
2023-05-06T08:19:40.512Z,15.41
2023-05-06T08:20:40.503Z,15.35
2023-05-06T08:21:40.485Z,15.22
2023-05-06T08:22:40.524Z,15.16
2023-05-06T08:23:40.560Z,15.19
2023-05-06T08:24:40.460Z,15.27
2023-05-06T08:25:40.448Z,15.31
2023-05-06T08:26:40.437Z,15.31
2023-05-06T08:27:40.420Z,15.28
2023-05-06T08:28:40.410Z,15.27
2023-05-06T08:29:40.399Z,15.28
2023-05-06T08:30:40.390Z,15.31
2023-05-06T08:31:40.491Z,15.34
2023-05-06T08:32:40.530Z,15.38
2023-05-06T08:33:40.357Z,15.43
2023-05-06T08:34:40.351Z,15.52
2023-05-06T08:35:40.332Z,15.62
2023-05-06T08:36:40.326Z,15.37
2023-05-06T08:37:40.314Z,15.35
2023-05-06T08:38:40.308Z,15.44
2023-05-06T08:39:40.387Z,15.52
2023-05-06T08:40:40.292Z,15.67
2023-05-06T08:41:40.283Z,15.43
2023-05-06T08:42:40.266Z,15.46
2023-05-06T08:43:40.255Z,15.49
2023-05-06T08:44:40.246Z,15.59
2023-05-06T08:45:40.245Z,15.66
2023-05-06T08:46:40.217Z,15.80
2023-05-06T08:47:40.286Z,15.96
2023-05-06T08:48:40.194Z,15.98
2023-05-06T08:49:40.196Z,16.10
2023-05-06T08:50:40.172Z,16.33
2023-05-06T08:51:40.161Z,16.55
2023-05-06T08:52:40.161Z,16.70
2023-05-06T08:53:40.305Z,16.90
2023-05-06T08:54:40.165Z,17.10
2023-05-06T08:55:40.289Z,17.25
2023-05-06T08:56:40.226Z,17.32
2023-05-06T08:57:40.306Z,17.35
2023-05-06T08:58:40.183Z,17.12
2023-05-06T08:59:40.243Z,17.14
2023-05-06T09:00:40.136Z,17.09
2023-05-06T09:01:40.148Z,16.96
2023-05-06T09:02:42.930Z,16.99
2023-05-06T09:03:40.084Z,17.18
2023-05-06T09:04:40.023Z,17.40
2023-05-06T09:05:40.012Z,18.10
2023-05-06T09:06:39.997Z,18.65
2023-05-06T09:07:39.987Z,19.23
2023-05-06T09:08:39.974Z,19.70
2023-05-06T09:09:39.977Z,18.86
2023-05-06T09:10:39.951Z,18.51
2023-05-06T09:11:40.034Z,18.39
2023-05-06T09:12:40.007Z,18.05
2023-05-06T09:13:40.009Z,18.21
2023-05-06T09:14:39.906Z,18.11
2023-05-06T09:15:39.917Z,18.14
2023-05-06T09:16:39.918Z,18.35
2023-05-06T09:17:39.903Z,18.44
2023-05-06T09:18:39.868Z,18.13
2023-05-06T09:19:39.868Z,17.84
2023-05-06T09:20:39.848Z,17.94
2023-05-06T09:21:39.839Z,18.20
2023-05-06T09:22:39.831Z,18.23
2023-05-06T09:23:39.944Z,18.31
2023-05-06T09:24:40.081Z,18.71
2023-05-06T09:25:39.930Z,19.38
2023-05-06T09:26:40.702Z,19.94
2023-05-06T09:27:39.816Z,19.98
2023-05-06T09:28:39.784Z,19.65
2023-05-06T09:29:39.767Z,19.62
2023-05-06T09:30:39.747Z,20.26
2023-05-06T09:31:39.733Z,21.03
2023-05-06T09:32:40.595Z,21.16
2023-05-06T09:33:39.709Z,21.38
2023-05-06T09:34:39.703Z,21.58
2023-05-06T09:35:39.685Z,21.81
2023-05-06T09:36:39.685Z,22.24
2023-05-06T09:37:39.727Z,22.70
2023-05-06T09:38:39.657Z,23.32
2023-05-06T09:39:39.649Z,23.53
2023-05-06T09:40:39.644Z,23.39
2023-05-06T09:41:39.623Z,23.18
2023-05-06T09:42:39.623Z,22.93
2023-05-06T09:43:39.706Z,23.50
2023-05-06T09:44:39.592Z,23.89
2023-05-06T09:45:39.588Z,23.50
2023-05-06T09:46:39.653Z,23.11
2023-05-06T09:47:39.614Z,22.41
2023-05-06T09:48:39.580Z,21.71
2023-05-06T09:49:39.590Z,20.81
2023-05-06T09:50:39.542Z,19.86
2023-05-06T09:51:39.590Z,19.27
2023-05-06T09:52:39.547Z,19.24
2023-05-06T09:53:39.504Z,19.43
2023-05-06T09:54:39.496Z,19.49
2023-05-06T09:55:39.483Z,19.68
2023-05-06T09:56:39.514Z,19.68
2023-05-06T09:57:39.475Z,19.43
2023-05-06T09:58:39.496Z,19.42
2023-05-06T09:59:39.547Z,19.31
2023-05-06T10:00:39.426Z,19.15
2023-05-06T10:01:39.476Z,19.09
2023-05-06T10:02:39.534Z,19.07
2023-05-06T10:03:39.547Z,19.30
2023-05-06T10:04:39.479Z,19.72
2023-05-06T10:05:39.381Z,20.30
2023-05-06T10:06:39.380Z,20.33
2023-05-06T10:07:39.354Z,20.40
2023-05-06T10:08:39.336Z,20.27
2023-05-06T10:09:39.341Z,20.42
2023-05-06T10:10:39.325Z,20.27
2023-05-06T10:11:39.320Z,20.34
2023-05-06T10:12:39.353Z,20.40
2023-05-06T10:13:39.296Z,20.40
2023-05-06T10:14:39.276Z,20.41
2023-05-06T10:15:39.294Z,20.22
2023-05-06T10:16:39.275Z,20.20
2023-05-06T10:17:39.273Z,20.17
2023-05-06T10:18:39.240Z,20.22
2023-05-06T10:19:39.233Z,20.19
2023-05-06T10:20:39.288Z,20.19
2023-05-06T10:21:39.207Z,20.22
2023-05-06T10:22:39.201Z,20.27
2023-05-06T10:23:39.199Z,20.07
2023-05-06T10:24:39.174Z,20.10
2023-05-06T10:25:39.177Z,20.23
2023-05-06T10:26:39.168Z,20.27
2023-05-06T10:27:39.146Z,20.13
2023-05-06T10:28:39.135Z,20.53
2023-05-06T10:29:39.119Z,20.60
2023-05-06T10:30:39.116Z,20.63
2023-05-06T10:31:39.274Z,20.63
2023-05-06T10:32:39.176Z,20.38
2023-05-06T10:33:42.549Z,20.31
2023-05-06T10:34:39.055Z,20.34
2023-05-06T10:35:39.079Z,20.56
2023-05-06T10:36:39.049Z,20.56
2023-05-06T10:37:39.031Z,20.54
2023-05-06T10:38:39.021Z,20.85
2023-05-06T10:39:40.867Z,20.72
2023-05-06T10:40:39.001Z,20.68
2023-05-06T10:41:38.990Z,20.44
2023-05-06T10:42:38.974Z,20.20
2023-05-06T10:43:38.961Z,19.95
2023-05-06T10:44:38.959Z,19.94
2023-05-06T10:45:38.975Z,20.00
2023-05-06T10:46:38.929Z,20.08
2023-05-06T10:47:39.076Z,20.01
2023-05-06T10:48:38.904Z,19.98
2023-05-06T10:49:38.897Z,20.02
2023-05-06T10:50:38.887Z,20.16
2023-05-06T10:51:38.890Z,20.40
2023-05-06T10:52:38.870Z,20.50
2023-05-06T10:53:38.871Z,21.03
2023-05-06T10:54:38.838Z,22.09
2023-05-06T10:55:38.855Z,23.07
2023-05-06T10:56:38.842Z,23.18
2023-05-06T10:57:38.807Z,23.25
2023-05-06T10:58:38.800Z,23.49
2023-05-06T10:59:38.795Z,23.25
2023-05-06T11:00:38.778Z,23.19
2023-05-06T11:01:38.813Z,23.52
2023-05-06T11:02:38.869Z,23.90
2023-05-06T11:03:38.919Z,23.54
2023-05-06T11:04:38.759Z,23.50
2023-05-06T11:05:38.740Z,23.07
2023-05-06T11:06:38.727Z,22.59
2023-05-06T11:07:38.704Z,22.69
2023-05-06T11:08:38.696Z,22.69
2023-05-06T11:09:38.689Z,22.64
2023-05-06T11:10:38.686Z,22.81
2023-05-06T11:11:38.664Z,23.00
2023-05-06T11:12:38.706Z,23.12
2023-05-06T11:13:38.645Z,23.07
2023-05-06T11:14:38.638Z,23.15
2023-05-06T11:15:38.659Z,22.76
2023-05-06T11:16:38.941Z,22.48
2023-05-06T11:17:38.694Z,22.29
2023-05-06T11:18:38.597Z,21.79
2023-05-06T11:19:38.610Z,21.38
2023-05-06T11:20:38.568Z,21.42
2023-05-06T11:21:38.567Z,21.59
2023-05-06T11:22:38.550Z,21.55
2023-05-06T11:23:38.542Z,21.61
2023-05-06T11:24:38.543Z,21.70
2023-05-06T11:25:38.531Z,21.64
2023-05-06T11:26:38.547Z,21.34
2023-05-06T11:27:38.546Z,20.96
2023-05-06T11:28:38.572Z,20.76
2023-05-06T11:29:38.539Z,20.50
2023-05-06T11:30:38.567Z,20.41
2023-05-06T11:31:38.563Z,20.54
2023-05-06T11:32:38.488Z,20.44
2023-05-06T11:33:38.434Z,20.31
2023-05-06T11:34:38.432Z,20.42
2023-05-06T11:35:38.572Z,20.58
2023-05-06T11:36:38.438Z,21.34
2023-05-06T11:37:38.423Z,21.40
2023-05-06T11:38:38.388Z,21.70
2023-05-06T11:39:40.771Z,22.19
2023-05-06T11:40:38.362Z,22.56
2023-05-06T11:41:38.358Z,23.04
2023-05-06T11:42:38.351Z,23.54
2023-05-06T11:43:38.326Z,23.53
2023-05-06T11:44:38.344Z,23.18
2023-05-06T11:45:38.307Z,22.79
2023-05-06T11:46:38.403Z,22.61
2023-05-06T11:47:38.290Z,22.99
2023-05-06T11:48:38.278Z,23.29
2023-05-06T11:49:38.265Z,23.52
2023-05-06T11:50:38.250Z,23.53
2023-05-06T11:51:38.270Z,23.74
2023-05-06T11:52:38.240Z,24.08
2023-05-06T11:53:38.252Z,24.70
2023-05-06T11:54:38.209Z,24.94
2023-05-06T11:55:38.207Z,25.34
2023-05-06T11:56:38.188Z,25.02
2023-05-06T11:57:38.177Z,24.26
2023-05-06T11:58:38.164Z,23.97
2023-05-06T11:59:38.158Z,23.69
2023-05-06T12:00:38.146Z,23.56
2023-05-06T12:01:38.140Z,23.37
2023-05-06T12:02:38.204Z,23.14
2023-05-06T12:03:38.229Z,22.93
2023-05-06T12:04:38.139Z,22.86
2023-05-06T12:05:38.101Z,22.86
2023-05-06T12:06:38.089Z,22.97
2023-05-06T12:07:38.349Z,23.12
2023-05-06T12:08:38.072Z,23.06
2023-05-06T12:09:38.081Z,23.31
2023-05-06T12:10:38.041Z,23.21
2023-05-06T12:11:38.036Z,23.25
2023-05-06T12:12:38.046Z,23.25
2023-05-06T12:13:38.006Z,23.35
2023-05-06T12:14:38.007Z,22.86
2023-05-06T12:15:37.987Z,22.45
2023-05-06T12:16:38.128Z,22.20
2023-05-06T12:17:38.009Z,22.12
2023-05-06T12:18:38.036Z,22.17
2023-05-06T12:19:37.949Z,21.96
2023-05-06T12:20:37.936Z,21.93
2023-05-06T12:21:37.929Z,21.77
2023-05-06T12:22:37.920Z,21.93
2023-05-06T12:23:38.076Z,22.29
2023-05-06T12:24:37.891Z,22.30
2023-05-06T12:25:37.879Z,22.29
2023-05-06T12:26:37.869Z,22.48
2023-05-06T12:27:37.866Z,22.64
2023-05-06T12:28:37.848Z,22.76
2023-05-06T12:29:37.842Z,22.72
2023-05-06T12:30:37.840Z,22.86
2023-05-06T12:31:37.879Z,23.07
2023-05-06T12:32:37.849Z,23.23
2023-05-06T12:33:37.802Z,23.86
2023-05-06T12:34:37.787Z,23.93
2023-05-06T12:35:37.781Z,23.75
2023-05-06T12:36:37.766Z,23.71
2023-05-06T12:37:37.790Z,23.19
2023-05-06T12:38:37.760Z,22.78
2023-05-06T12:39:37.764Z,22.49
2023-05-06T12:40:37.741Z,22.38
2023-05-06T12:41:37.725Z,22.23
2023-05-06T12:42:37.707Z,22.15
2023-05-06T12:43:37.705Z,21.90
2023-05-06T12:44:37.684Z,21.55
2023-05-06T12:45:37.680Z,21.37
2023-05-06T12:46:37.665Z,21.03
2023-05-06T12:47:37.719Z,21.01
2023-05-06T12:48:37.651Z,20.90
2023-05-06T12:49:37.637Z,20.87
2023-05-06T12:50:37.671Z,21.00
2023-05-06T12:51:37.616Z,21.05
2023-05-06T12:52:37.604Z,21.12